sensor_id;sensor_type;location;lat;lon;timestamp;P1;durP1;ratioP1;P2;durP2;ratioP2
3293;SDS011;1659;51.470;6.770;2023-02-18T00:00:52;35.50;;;18.23;;
3293;SDS011;1659;51.470;6.770;2023-02-18T00:03:18;28.73;;;18.97;;
3293;SDS011;1659;51.470;6.770;2023-02-18T00:05:45;37.00;;;21.33;;
3293;SDS011;1659;51.470;6.770;2023-02-18T00:08:13;42.27;;;19.83;;
3293;SDS011;1659;51.470;6.770;2023-02-18T00:10:39;38.47;;;21.07;;
3293;SDS011;1659;51.470;6.770;2023-02-18T00:13:06;31.97;;;18.53;;
3293;SDS011;1659;51.470;6.770;2023-02-18T00:15:33;30.00;;;17.50;;
3293;SDS011;1659;51.470;6.770;2023-02-18T00:18:00;34.33;;;19.53;;
3293;SDS011;1659;51.470;6.770;2023-02-18T00:20:26;30.10;;;19.00;;
3293;SDS011;1659;51.470;6.770;2023-02-18T00:22:53;34.07;;;19.10;;
3293;SDS011;1659;51.470;6.770;2023-02-18T00:25:21;34.80;;;20.10;;
3293;SDS011;1659;51.470;6.770;2023-02-18T00:27:47;36.17;;;20.57;;
3293;SDS011;1659;51.470;6.770;2023-02-18T00:30:14;35.43;;;21.53;;
3293;SDS011;1659;51.470;6.770;2023-02-18T00:32:40;31.50;;;18.67;;
3293;SDS011;1659;51.470;6.770;2023-02-18T00:35:07;33.30;;;18.63;;
3293;SDS011;1659;51.470;6.770;2023-02-18T00:37:34;33.10;;;19.50;;
3293;SDS011;1659;51.470;6.770;2023-02-18T00:40:01;33.57;;;19.70;;
3293;SDS011;1659;51.470;6.770;2023-02-18T00:42:29;31.90;;;19.70;;
3293;SDS011;1659;51.470;6.770;2023-02-18T00:44:55;32.83;;;18.87;;
3293;SDS011;1659;51.470;6.770;2023-02-18T00:47:22;34.67;;;18.40;;
3293;SDS011;1659;51.470;6.770;2023-02-18T00:49:48;32.70;;;19.57;;
3293;SDS011;1659;51.470;6.770;2023-02-18T00:52:15;33.23;;;19.60;;
3293;SDS011;1659;51.470;6.770;2023-02-18T00:54:41;32.47;;;18.63;;
3293;SDS011;1659;51.470;6.770;2023-02-18T00:57:08;30.10;;;19.63;;
3293;SDS011;1659;51.470;6.770;2023-02-18T00:59:36;36.47;;;20.17;;
3293;SDS011;1659;51.470;6.770;2023-02-18T01:02:02;36.73;;;19.03;;
3293;SDS011;1659;51.470;6.770;2023-02-18T01:04:31;32.00;;;17.80;;
3293;SDS011;1659;51.470;6.770;2023-02-18T01:06:58;33.73;;;19.63;;
3293;SDS011;1659;51.470;6.770;2023-02-18T01:09:24;38.30;;;20.80;;
3293;SDS011;1659;51.470;6.770;2023-02-18T01:11:51;36.73;;;19.03;;
3293;SDS011;1659;51.470;6.770;2023-02-18T01:14:17;35.70;;;20.00;;
3293;SDS011;1659;51.470;6.770;2023-02-18T01:16:45;37.07;;;19.97;;
3293;SDS011;1659;51.470;6.770;2023-02-18T01:19:12;35.77;;;20.30;;
3293;SDS011;1659;51.470;6.770;2023-02-18T01:21:38;35.47;;;20.07;;
3293;SDS011;1659;51.470;6.770;2023-02-18T01:24:05;36.87;;;19.37;;
3293;SDS011;1659;51.470;6.770;2023-02-18T01:26:32;32.10;;;18.13;;
3293;SDS011;1659;51.470;6.770;2023-02-18T01:28:58;39.57;;;19.40;;
3293;SDS011;1659;51.470;6.770;2023-02-18T01:31:25;33.77;;;19.03;;
3293;SDS011;1659;51.470;6.770;2023-02-18T01:33:53;48.00;;;24.80;;
3293;SDS011;1659;51.470;6.770;2023-02-18T01:36:19;37.43;;;20.17;;
3293;SDS011;1659;51.470;6.770;2023-02-18T01:38:46;35.50;;;19.63;;
3293;SDS011;1659;51.470;6.770;2023-02-18T01:41:13;34.43;;;18.83;;
3293;SDS011;1659;51.470;6.770;2023-02-18T01:43:39;32.80;;;17.17;;
3293;SDS011;1659;51.470;6.770;2023-02-18T01:46:14;28.13;;;16.90;;
3293;SDS011;1659;51.470;6.770;2023-02-18T01:48:43;29.80;;;18.23;;
3293;SDS011;1659;51.470;6.770;2023-02-18T01:51:15;34.07;;;18.90;;
3293;SDS011;1659;51.470;6.770;2023-02-18T01:53:46;37.60;;;17.23;;
3293;SDS011;1659;51.470;6.770;2023-02-18T01:56:19;28.10;;;17.40;;
3293;SDS011;1659;51.470;6.770;2023-02-18T01:58:50;35.03;;;18.23;;
3293;SDS011;1659;51.470;6.770;2023-02-18T02:01:19;29.13;;;15.83;;
3293;SDS011;1659;51.470;6.770;2023-02-18T02:03:46;34.50;;;16.53;;
3293;SDS011;1659;51.470;6.770;2023-02-18T02:06:15;33.40;;;16.97;;
3293;SDS011;1659;51.470;6.770;2023-02-18T02:08:43;30.57;;;16.33;;
3293;SDS011;1659;51.470;6.770;2023-02-18T02:11:19;28.80;;;16.70;;
3293;SDS011;1659;51.470;6.770;2023-02-18T02:16:42;28.47;;;15.23;;
3293;SDS011;1659;51.470;6.770;2023-02-18T02:19:26;22.20;;;12.60;;
3293;SDS011;1659;51.470;6.770;2023-02-18T02:25:25;28.97;;;16.60;;
3293;SDS011;1659;51.470;6.770;2023-02-18T02:28:20;23.03;;;14.10;;
3293;SDS011;1659;51.470;6.770;2023-02-18T02:31:23;27.60;;;15.00;;
3293;SDS011;1659;51.470;6.770;2023-02-18T02:34:28;24.50;;;13.87;;
3293;SDS011;1659;51.470;6.770;2023-02-18T02:37:13;24.77;;;13.20;;
3293;SDS011;1659;51.470;6.770;2023-02-18T02:39:46;22.83;;;12.60;;
3293;SDS011;1659;51.470;6.770;2023-02-18T02:42:24;25.37;;;12.80;;
3293;SDS011;1659;51.470;6.770;2023-02-18T02:45:02;24.63;;;12.17;;
3293;SDS011;1659;51.470;6.770;2023-02-18T02:47:37;29.87;;;13.70;;
3293;SDS011;1659;51.470;6.770;2023-02-18T02:50:12;25.00;;;13.50;;
3293;SDS011;1659;51.470;6.770;2023-02-18T02:52:43;24.00;;;12.70;;
3293;SDS011;1659;51.470;6.770;2023-02-18T02:55:13;21.20;;;12.47;;
3293;SDS011;1659;51.470;6.770;2023-02-18T02:57:44;28.80;;;14.90;;
3293;SDS011;1659;51.470;6.770;2023-02-18T03:00:14;26.23;;;12.73;;
3293;SDS011;1659;51.470;6.770;2023-02-18T03:02:54;22.27;;;12.17;;
3293;SDS011;1659;51.470;6.770;2023-02-18T03:05:41;23.07;;;12.00;;
3293;SDS011;1659;51.470;6.770;2023-02-18T03:08:23;16.60;;;11.03;;
3293;SDS011;1659;51.470;6.770;2023-02-18T03:10:57;18.13;;;11.50;;
3293;SDS011;1659;51.470;6.770;2023-02-18T03:13:37;17.10;;;11.00;;
3293;SDS011;1659;51.470;6.770;2023-02-18T03:16:13;17.10;;;10.40;;
3293;SDS011;1659;51.470;6.770;2023-02-18T03:18:49;18.53;;;11.87;;
3293;SDS011;1659;51.470;6.770;2023-02-18T03:21:24;20.53;;;11.57;;
3293;SDS011;1659;51.470;6.770;2023-02-18T03:23:55;19.30;;;11.57;;
3293;SDS011;1659;51.470;6.770;2023-02-18T03:26:25;21.13;;;11.77;;
3293;SDS011;1659;51.470;6.770;2023-02-18T03:28:57;19.77;;;12.03;;
3293;SDS011;1659;51.470;6.770;2023-02-18T03:31:27;20.63;;;11.80;;
3293;SDS011;1659;51.470;6.770;2023-02-18T03:33:58;23.33;;;13.37;;
3293;SDS011;1659;51.470;6.770;2023-02-18T03:36:29;27.90;;;12.90;;
3293;SDS011;1659;51.470;6.770;2023-02-18T03:38:58;25.63;;;12.47;;
3293;SDS011;1659;51.470;6.770;2023-02-18T03:41:28;24.50;;;12.20;;
3293;SDS011;1659;51.470;6.770;2023-02-18T03:43:57;21.53;;;12.30;;
3293;SDS011;1659;51.470;6.770;2023-02-18T03:46:25;25.63;;;13.87;;
3293;SDS011;1659;51.470;6.770;2023-02-18T03:48:52;24.37;;;13.30;;
3293;SDS011;1659;51.470;6.770;2023-02-18T03:51:19;23.97;;;13.17;;
3293;SDS011;1659;51.470;6.770;2023-02-18T03:53:47;25.30;;;12.77;;
3293;SDS011;1659;51.470;6.770;2023-02-18T03:56:14;29.80;;;13.57;;
3293;SDS011;1659;51.470;6.770;2023-02-18T03:58:40;25.97;;;11.90;;
3293;SDS011;1659;51.470;6.770;2023-02-18T04:01:07;20.83;;;11.40;;
3293;SDS011;1659;51.470;6.770;2023-02-18T04:03:34;22.83;;;11.77;;
3293;SDS011;1659;51.470;6.770;2023-02-18T04:06:00;26.50;;;12.10;;
3293;SDS011;1659;51.470;6.770;2023-02-18T04:08:27;22.97;;;12.37;;
3293;SDS011;1659;51.470;6.770;2023-02-18T04:10:55;16.97;;;9.73;;
3293;SDS011;1659;51.470;6.770;2023-02-18T04:13:21;22.90;;;12.30;;
3293;SDS011;1659;51.470;6.770;2023-02-18T04:15:48;18.57;;;10.27;;
3293;SDS011;1659;51.470;6.770;2023-02-18T04:18:15;18.00;;;10.20;;
3293;SDS011;1659;51.470;6.770;2023-02-18T04:20:42;19.73;;;9.53;;
3293;SDS011;1659;51.470;6.770;2023-02-18T04:23:10;21.33;;;9.20;;
3293;SDS011;1659;51.470;6.770;2023-02-18T04:25:36;14.53;;;8.40;;
3293;SDS011;1659;51.470;6.770;2023-02-18T04:28:05;14.70;;;7.80;;
3293;SDS011;1659;51.470;6.770;2023-02-18T04:30:31;18.23;;;9.90;;
3293;SDS011;1659;51.470;6.770;2023-02-18T04:32:58;14.27;;;8.07;;
3293;SDS011;1659;51.470;6.770;2023-02-18T04:35:25;13.53;;;8.20;;
3293;SDS011;1659;51.470;6.770;2023-02-18T04:37:51;17.20;;;9.20;;
3293;SDS011;1659;51.470;6.770;2023-02-18T04:40:18;12.57;;;7.23;;
3293;SDS011;1659;51.470;6.770;2023-02-18T04:42:44;13.63;;;7.60;;
3293;SDS011;1659;51.470;6.770;2023-02-18T04:45:12;13.47;;;8.03;;
3293;SDS011;1659;51.470;6.770;2023-02-18T04:47:39;11.80;;;6.63;;
3293;SDS011;1659;51.470;6.770;2023-02-18T04:50:06;16.17;;;7.37;;
3293;SDS011;1659;51.470;6.770;2023-02-18T04:52:33;8.40;;;5.63;;
3293;SDS011;1659;51.470;6.770;2023-02-18T04:55:00;11.20;;;6.47;;
3293;SDS011;1659;51.470;6.770;2023-02-18T04:57:26;9.23;;;5.63;;
3293;SDS011;1659;51.470;6.770;2023-02-18T04:59:53;9.57;;;5.57;;
3293;SDS011;1659;51.470;6.770;2023-02-18T05:02:21;17.73;;;6.73;;
3293;SDS011;1659;51.470;6.770;2023-02-18T05:04:47;9.23;;;5.13;;
3293;SDS011;1659;51.470;6.770;2023-02-18T05:07:14;10.43;;;6.17;;
3293;SDS011;1659;51.470;6.770;2023-02-18T05:09:40;8.70;;;5.27;;
3293;SDS011;1659;51.470;6.770;2023-02-18T05:12:07;6.83;;;4.60;;
3293;SDS011;1659;51.470;6.770;2023-02-18T05:14:34;7.73;;;5.10;;
3293;SDS011;1659;51.470;6.770;2023-02-18T05:17:00;9.40;;;4.73;;
3293;SDS011;1659;51.470;6.770;2023-02-18T05:19:28;6.43;;;4.00;;
3293;SDS011;1659;51.470;6.770;2023-02-18T05:21:55;7.13;;;4.27;;
3293;SDS011;1659;51.470;6.770;2023-02-18T05:24:21;6.33;;;3.60;;
3293;SDS011;1659;51.470;6.770;2023-02-18T05:26:48;6.73;;;3.53;;
3293;SDS011;1659;51.470;6.770;2023-02-18T05:29:14;3.80;;;3.30;;
3293;SDS011;1659;51.470;6.770;2023-02-18T05:31:41;5.53;;;3.83;;
3293;SDS011;1659;51.470;6.770;2023-02-18T05:34:07;5.53;;;3.80;;
3293;SDS011;1659;51.470;6.770;2023-02-18T05:36:36;6.07;;;3.63;;
3293;SDS011;1659;51.470;6.770;2023-02-18T05:39:03;4.90;;;3.33;;
3293;SDS011;1659;51.470;6.770;2023-02-18T05:41:29;4.43;;;3.03;;
3293;SDS011;1659;51.470;6.770;2023-02-18T05:43:56;3.70;;;3.20;;
3293;SDS011;1659;51.470;6.770;2023-02-18T05:46:40;6.13;;;3.43;;
3293;SDS011;1659;51.470;6.770;2023-02-18T05:49:07;4.07;;;3.67;;
3293;SDS011;1659;51.470;6.770;2023-02-18T05:51:33;4.10;;;3.50;;
3293;SDS011;1659;51.470;6.770;2023-02-18T05:54:01;3.97;;;3.57;;
3293;SDS011;1659;51.470;6.770;2023-02-18T05:56:28;6.73;;;4.07;;
3293;SDS011;1659;51.470;6.770;2023-02-18T05:58:54;4.73;;;3.63;;
3293;SDS011;1659;51.470;6.770;2023-02-18T06:01:21;4.73;;;3.60;;
3293;SDS011;1659;51.470;6.770;2023-02-18T06:03:47;6.37;;;4.00;;
3293;SDS011;1659;51.470;6.770;2023-02-18T06:06:14;7.37;;;4.50;;
3293;SDS011;1659;51.470;6.770;2023-02-18T06:08:41;5.33;;;3.90;;
3293;SDS011;1659;51.470;6.770;2023-02-18T06:11:09;4.80;;;3.67;;
3293;SDS011;1659;51.470;6.770;2023-02-18T06:13:35;5.40;;;3.70;;
3293;SDS011;1659;51.470;6.770;2023-02-18T06:16:02;10.27;;;4.30;;
3293;SDS011;1659;51.470;6.770;2023-02-18T06:18:28;4.40;;;3.53;;
3293;SDS011;1659;51.470;6.770;2023-02-18T06:20:55;4.10;;;3.60;;
3293;SDS011;1659;51.470;6.770;2023-02-18T06:23:22;4.97;;;3.30;;
3293;SDS011;1659;51.470;6.770;2023-02-18T06:25:48;6.30;;;4.00;;
3293;SDS011;1659;51.470;6.770;2023-02-18T06:28:16;5.00;;;4.13;;
3293;SDS011;1659;51.470;6.770;2023-02-18T06:30:43;3.63;;;3.00;;
3293;SDS011;1659;51.470;6.770;2023-02-18T06:33:10;3.50;;;3.03;;
3293;SDS011;1659;51.470;6.770;2023-02-18T06:35:36;4.43;;;3.40;;
3293;SDS011;1659;51.470;6.770;2023-02-18T06:38:03;6.03;;;3.80;;
3293;SDS011;1659;51.470;6.770;2023-02-18T06:40:30;14.23;;;6.00;;
3293;SDS011;1659;51.470;6.770;2023-02-18T06:42:56;12.60;;;6.47;;
3293;SDS011;1659;51.470;6.770;2023-02-18T06:45:24;6.57;;;4.33;;
3293;SDS011;1659;51.470;6.770;2023-02-18T06:47:51;8.27;;;5.70;;
3293;SDS011;1659;51.470;6.770;2023-02-18T06:50:17;14.93;;;6.87;;
3293;SDS011;1659;51.470;6.770;2023-02-18T06:52:44;8.40;;;5.30;;
3293;SDS011;1659;51.470;6.770;2023-02-18T06:55:11;7.33;;;4.77;;
3293;SDS011;1659;51.470;6.770;2023-02-18T06:57:37;11.37;;;6.03;;
3293;SDS011;1659;51.470;6.770;2023-02-18T07:00:05;13.13;;;5.73;;
3293;SDS011;1659;51.470;6.770;2023-02-18T07:02:33;12.30;;;4.90;;
3293;SDS011;1659;51.470;6.770;2023-02-18T07:05:00;9.40;;;4.63;;
3293;SDS011;1659;51.470;6.770;2023-02-18T07:07:27;13.27;;;5.33;;
3293;SDS011;1659;51.470;6.770;2023-02-18T07:09:53;6.17;;;4.33;;
3293;SDS011;1659;51.470;6.770;2023-02-18T07:12:20;8.17;;;5.10;;
3293;SDS011;1659;51.470;6.770;2023-02-18T07:14:46;9.53;;;5.23;;
3293;SDS011;1659;51.470;6.770;2023-02-18T07:17:13;13.60;;;5.93;;
3293;SDS011;1659;51.470;6.770;2023-02-18T07:19:41;12.63;;;6.47;;
3293;SDS011;1659;51.470;6.770;2023-02-18T07:22:07;10.70;;;6.20;;
3293;SDS011;1659;51.470;6.770;2023-02-18T07:24:34;13.27;;;6.43;;
3293;SDS011;1659;51.470;6.770;2023-02-18T07:27:01;53.60;;;21.57;;
3293;SDS011;1659;51.470;6.770;2023-02-18T07:29:27;42.13;;;15.77;;
3293;SDS011;1659;51.470;6.770;2023-02-18T07:31:54;28.30;;;9.90;;
3293;SDS011;1659;51.470;6.770;2023-02-18T07:34:21;18.90;;;8.50;;
3293;SDS011;1659;51.470;6.770;2023-02-18T07:36:49;16.73;;;7.70;;
3293;SDS011;1659;51.470;6.770;2023-02-18T07:39:15;34.37;;;16.30;;
3293;SDS011;1659;51.470;6.770;2023-02-18T07:41:44;21.80;;;12.30;;
3293;SDS011;1659;51.470;6.770;2023-02-18T07:44:11;15.50;;;8.00;;
3293;SDS011;1659;51.470;6.770;2023-02-18T07:46:38;13.70;;;6.77;;
3293;SDS011;1659;51.470;6.770;2023-02-18T07:49:05;14.23;;;6.90;;
3293;SDS011;1659;51.470;6.770;2023-02-18T07:51:32;8.80;;;4.33;;
3293;SDS011;1659;51.470;6.770;2023-02-18T07:54:00;6.20;;;3.83;;
3293;SDS011;1659;51.470;6.770;2023-02-18T07:56:27;3.97;;;3.10;;
3293;SDS011;1659;51.470;6.770;2023-02-18T07:58:53;4.17;;;2.90;;
3293;SDS011;1659;51.470;6.770;2023-02-18T08:01:20;6.90;;;3.33;;
3293;SDS011;1659;51.470;6.770;2023-02-18T08:03:46;3.33;;;2.57;;
3293;SDS011;1659;51.470;6.770;2023-02-18T08:06:18;5.17;;;3.20;;
3293;SDS011;1659;51.470;6.770;2023-02-18T08:08:46;3.13;;;2.80;;
3293;SDS011;1659;51.470;6.770;2023-02-18T08:11:14;7.13;;;3.20;;
3293;SDS011;1659;51.470;6.770;2023-02-18T08:13:41;3.77;;;3.43;;
3293;SDS011;1659;51.470;6.770;2023-02-18T08:16:07;5.53;;;3.50;;
3293;SDS011;1659;51.470;6.770;2023-02-18T08:18:34;6.93;;;3.90;;
3293;SDS011;1659;51.470;6.770;2023-02-18T08:21:01;6.93;;;4.23;;
3293;SDS011;1659;51.470;6.770;2023-02-18T08:23:27;17.30;;;6.13;;
3293;SDS011;1659;51.470;6.770;2023-02-18T08:25:54;35.63;;;9.60;;
3293;SDS011;1659;51.470;6.770;2023-02-18T08:28:22;14.93;;;4.83;;
3293;SDS011;1659;51.470;6.770;2023-02-18T08:30:50;7.77;;;4.90;;
3293;SDS011;1659;51.470;6.770;2023-02-18T08:33:18;9.57;;;5.10;;
3293;SDS011;1659;51.470;6.770;2023-02-18T08:35:45;5.80;;;4.53;;
3293;SDS011;1659;51.470;6.770;2023-02-18T08:38:13;10.27;;;5.60;;
3293;SDS011;1659;51.470;6.770;2023-02-18T08:40:40;7.23;;;4.50;;
3293;SDS011;1659;51.470;6.770;2023-02-18T08:43:07;11.40;;;5.37;;
3293;SDS011;1659;51.470;6.770;2023-02-18T08:45:35;10.83;;;5.40;;
3293;SDS011;1659;51.470;6.770;2023-02-18T08:48:02;12.33;;;5.40;;
3293;SDS011;1659;51.470;6.770;2023-02-18T08:50:28;22.73;;;7.00;;
3293;SDS011;1659;51.470;6.770;2023-02-18T08:52:55;12.40;;;6.00;;
3293;SDS011;1659;51.470;6.770;2023-02-18T08:55:24;11.97;;;6.37;;
3293;SDS011;1659;51.470;6.770;2023-02-18T08:57:51;9.00;;;4.90;;
3293;SDS011;1659;51.470;6.770;2023-02-18T09:00:18;8.67;;;5.70;;
3293;SDS011;1659;51.470;6.770;2023-02-18T09:02:46;9.30;;;4.90;;
3293;SDS011;1659;51.470;6.770;2023-02-18T09:05:13;11.20;;;5.80;;
3293;SDS011;1659;51.470;6.770;2023-02-18T09:07:40;14.83;;;7.20;;
3293;SDS011;1659;51.470;6.770;2023-02-18T09:10:06;17.77;;;6.43;;
3293;SDS011;1659;51.470;6.770;2023-02-18T09:12:34;18.50;;;8.17;;
3293;SDS011;1659;51.470;6.770;2023-02-18T09:15:00;10.80;;;5.60;;
3293;SDS011;1659;51.470;6.770;2023-02-18T09:17:28;16.60;;;7.40;;
3293;SDS011;1659;51.470;6.770;2023-02-18T09:19:56;8.97;;;5.30;;
3293;SDS011;1659;51.470;6.770;2023-02-18T09:22:23;8.77;;;4.83;;
3293;SDS011;1659;51.470;6.770;2023-02-18T09:24:49;18.17;;;5.37;;
3293;SDS011;1659;51.470;6.770;2023-02-18T09:27:16;16.73;;;5.13;;
3293;SDS011;1659;51.470;6.770;2023-02-18T09:29:43;17.60;;;7.67;;
3293;SDS011;1659;51.470;6.770;2023-02-18T09:32:09;15.83;;;8.00;;
3293;SDS011;1659;51.470;6.770;2023-02-18T09:34:36;18.13;;;7.27;;
3293;SDS011;1659;51.470;6.770;2023-02-18T09:37:04;23.13;;;8.33;;
3293;SDS011;1659;51.470;6.770;2023-02-18T09:39:31;28.33;;;8.83;;
3293;SDS011;1659;51.470;6.770;2023-02-18T09:41:58;14.17;;;6.00;;
3293;SDS011;1659;51.470;6.770;2023-02-18T09:44:28;13.60;;;7.27;;
3293;SDS011;1659;51.470;6.770;2023-02-18T09:47:00;17.27;;;7.50;;
3293;SDS011;1659;51.470;6.770;2023-02-18T09:49:30;17.63;;;7.40;;
3293;SDS011;1659;51.470;6.770;2023-02-18T09:52:02;18.70;;;8.90;;
3293;SDS011;1659;51.470;6.770;2023-02-18T09:54:32;17.07;;;8.00;;
3293;SDS011;1659;51.470;6.770;2023-02-18T09:56:59;29.27;;;9.40;;
3293;SDS011;1659;51.470;6.770;2023-02-18T09:59:27;17.03;;;8.80;;
3293;SDS011;1659;51.470;6.770;2023-02-18T10:01:55;16.53;;;6.80;;
3293;SDS011;1659;51.470;6.770;2023-02-18T10:04:25;13.53;;;6.20;;
3293;SDS011;1659;51.470;6.770;2023-02-18T10:06:54;10.23;;;5.50;;
3293;SDS011;1659;51.470;6.770;2023-02-18T10:09:24;15.30;;;5.83;;
3293;SDS011;1659;51.470;6.770;2023-02-18T10:11:54;11.60;;;5.00;;
3293;SDS011;1659;51.470;6.770;2023-02-18T10:14:22;16.90;;;5.50;;
3293;SDS011;1659;51.470;6.770;2023-02-18T10:16:51;39.37;;;15.90;;
3293;SDS011;1659;51.470;6.770;2023-02-18T10:19:20;66.43;;;25.57;;
3293;SDS011;1659;51.470;6.770;2023-02-18T10:21:49;32.80;;;13.67;;
3293;SDS011;1659;51.470;6.770;2023-02-18T10:24:21;22.23;;;7.77;;
3293;SDS011;1659;51.470;6.770;2023-02-18T10:26:54;26.60;;;11.63;;
3293;SDS011;1659;51.470;6.770;2023-02-18T10:29:21;24.93;;;11.43;;
3293;SDS011;1659;51.470;6.770;2023-02-18T10:31:50;19.67;;;8.57;;
3293;SDS011;1659;51.470;6.770;2023-02-18T10:34:22;14.33;;;8.57;;
3293;SDS011;1659;51.470;6.770;2023-02-18T10:36:56;23.63;;;10.00;;
3293;SDS011;1659;51.470;6.770;2023-02-18T10:39:36;15.47;;;8.03;;
3293;SDS011;1659;51.470;6.770;2023-02-18T10:42:19;19.77;;;7.40;;
3293;SDS011;1659;51.470;6.770;2023-02-18T10:44:57;11.50;;;7.37;;
3293;SDS011;1659;51.470;6.770;2023-02-18T10:47:35;34.03;;;15.00;;
3293;SDS011;1659;51.470;6.770;2023-02-18T10:50:08;29.00;;;11.73;;
3293;SDS011;1659;51.470;6.770;2023-02-18T10:52:37;26.60;;;12.73;;
3293;SDS011;1659;51.470;6.770;2023-02-18T10:55:09;27.07;;;10.73;;
3293;SDS011;1659;51.470;6.770;2023-02-18T10:57:46;39.13;;;11.40;;
3293;SDS011;1659;51.470;6.770;2023-02-18T11:00:15;17.00;;;8.60;;
3293;SDS011;1659;51.470;6.770;2023-02-18T11:02:43;10.60;;;7.50;;
3293;SDS011;1659;51.470;6.770;2023-02-18T11:05:16;15.87;;;7.77;;
3293;SDS011;1659;51.470;6.770;2023-02-18T11:07:48;27.77;;;12.20;;
3293;SDS011;1659;51.470;6.770;2023-02-18T11:10:21;37.13;;;17.90;;
3293;SDS011;1659;51.470;6.770;2023-02-18T11:12:50;37.13;;;14.77;;
3293;SDS011;1659;51.470;6.770;2023-02-18T11:15:21;19.43;;;9.40;;
3293;SDS011;1659;51.470;6.770;2023-02-18T11:17:49;24.93;;;10.00;;
3293;SDS011;1659;51.470;6.770;2023-02-18T11:20:28;21.90;;;11.30;;
3293;SDS011;1659;51.470;6.770;2023-02-18T11:22:57;17.07;;;7.70;;
3293;SDS011;1659;51.470;6.770;2023-02-18T11:25:39;16.90;;;9.00;;
3293;SDS011;1659;51.470;6.770;2023-02-18T11:31:07;26.80;;;8.00;;
3293;SDS011;1659;51.470;6.770;2023-02-18T11:33:36;20.47;;;8.20;;
3293;SDS011;1659;51.470;6.770;2023-02-18T11:36:09;23.07;;;10.47;;
3293;SDS011;1659;51.470;6.770;2023-02-18T11:38:44;23.40;;;9.67;;
3293;SDS011;1659;51.470;6.770;2023-02-18T11:41:15;22.37;;;8.97;;
3293;SDS011;1659;51.470;6.770;2023-02-18T11:43:44;17.30;;;8.30;;
3293;SDS011;1659;51.470;6.770;2023-02-18T11:46:15;28.30;;;9.53;;
3293;SDS011;1659;51.470;6.770;2023-02-18T11:48:43;25.07;;;9.30;;
3293;SDS011;1659;51.470;6.770;2023-02-18T11:51:14;12.07;;;6.80;;
3293;SDS011;1659;51.470;6.770;2023-02-18T11:53:52;17.17;;;7.53;;
3293;SDS011;1659;51.470;6.770;2023-02-18T11:56:25;12.70;;;6.80;;
3293;SDS011;1659;51.470;6.770;2023-02-18T11:58:53;27.63;;;11.40;;
3293;SDS011;1659;51.470;6.770;2023-02-18T12:01:26;28.47;;;12.17;;
3293;SDS011;1659;51.470;6.770;2023-02-18T12:03:59;17.63;;;9.60;;
3293;SDS011;1659;51.470;6.770;2023-02-18T12:06:33;19.10;;;9.17;;
3293;SDS011;1659;51.470;6.770;2023-02-18T12:09:04;18.20;;;7.57;;
3293;SDS011;1659;51.470;6.770;2023-02-18T12:11:35;12.33;;;7.00;;
3293;SDS011;1659;51.470;6.770;2023-02-18T12:14:16;16.80;;;6.93;;
3293;SDS011;1659;51.470;6.770;2023-02-18T12:16:45;10.30;;;6.30;;
3293;SDS011;1659;51.470;6.770;2023-02-18T12:19:35;15.83;;;6.90;;
3293;SDS011;1659;51.470;6.770;2023-02-18T12:22:14;28.83;;;12.60;;
3293;SDS011;1659;51.470;6.770;2023-02-18T12:24:48;29.90;;;11.03;;
3293;SDS011;1659;51.470;6.770;2023-02-18T12:27:32;18.20;;;9.27;;
3293;SDS011;1659;51.470;6.770;2023-02-18T12:30:20;18.37;;;8.80;;
3293;SDS011;1659;51.470;6.770;2023-02-18T12:32:59;22.37;;;8.73;;
3293;SDS011;1659;51.470;6.770;2023-02-18T12:35:36;12.20;;;7.33;;
3293;SDS011;1659;51.470;6.770;2023-02-18T12:41:19;32.43;;;12.07;;
3293;SDS011;1659;51.470;6.770;2023-02-18T12:44:05;22.33;;;10.40;;
3293;SDS011;1659;51.470;6.770;2023-02-18T12:46:49;23.83;;;9.93;;
3293;SDS011;1659;51.470;6.770;2023-02-18T12:52:33;25.03;;;13.20;;
3293;SDS011;1659;51.470;6.770;2023-02-18T12:58:15;30.60;;;15.57;;
3293;SDS011;1659;51.470;6.770;2023-02-18T13:00:58;21.90;;;12.27;;
3293;SDS011;1659;51.470;6.770;2023-02-18T13:06:45;21.90;;;12.47;;
3293;SDS011;1659;51.470;6.770;2023-02-18T13:09:26;21.23;;;11.10;;
3293;SDS011;1659;51.470;6.770;2023-02-18T13:12:02;18.97;;;10.10;;
3293;SDS011;1659;51.470;6.770;2023-02-18T13:14:35;15.73;;;9.00;;
3293;SDS011;1659;51.470;6.770;2023-02-18T13:17:09;23.97;;;10.50;;
3293;SDS011;1659;51.470;6.770;2023-02-18T13:19:39;20.20;;;11.63;;
3293;SDS011;1659;51.470;6.770;2023-02-18T13:22:11;19.40;;;10.20;;
3293;SDS011;1659;51.470;6.770;2023-02-18T13:24:40;22.27;;;13.73;;
3293;SDS011;1659;51.470;6.770;2023-02-18T13:27:12;24.57;;;12.43;;
3293;SDS011;1659;51.470;6.770;2023-02-18T13:29:48;20.83;;;11.17;;
3293;SDS011;1659;51.470;6.770;2023-02-18T13:32:25;27.20;;;12.73;;
3293;SDS011;1659;51.470;6.770;2023-02-18T13:34:59;29.63;;;13.10;;
3293;SDS011;1659;51.470;6.770;2023-02-18T13:37:34;22.00;;;13.20;;
3293;SDS011;1659;51.470;6.770;2023-02-18T13:40:07;23.67;;;12.03;;
3293;SDS011;1659;51.470;6.770;2023-02-18T13:42:43;25.80;;;13.70;;
3293;SDS011;1659;51.470;6.770;2023-02-18T13:47:58;37.80;;;17.77;;
3293;SDS011;1659;51.470;6.770;2023-02-18T13:50:30;26.87;;;14.87;;
3293;SDS011;1659;51.470;6.770;2023-02-18T13:53:23;30.83;;;13.77;;
3293;SDS011;1659;51.470;6.770;2023-02-18T13:56:00;29.60;;;15.90;;
3293;SDS011;1659;51.470;6.770;2023-02-18T13:58:31;25.70;;;14.20;;
3293;SDS011;1659;51.470;6.770;2023-02-18T14:01:12;34.83;;;14.70;;
3293;SDS011;1659;51.470;6.770;2023-02-18T14:03:51;39.17;;;18.57;;
3293;SDS011;1659;51.470;6.770;2023-02-18T14:06:23;29.47;;;17.20;;
3293;SDS011;1659;51.470;6.770;2023-02-18T14:08:51;36.43;;;15.87;;
3293;SDS011;1659;51.470;6.770;2023-02-18T14:11:39;30.57;;;16.27;;
3293;SDS011;1659;51.470;6.770;2023-02-18T14:22:56;40.03;;;17.87;;
3293;SDS011;1659;51.470;6.770;2023-02-18T14:25:30;32.83;;;18.37;;
3293;SDS011;1659;51.470;6.770;2023-02-18T14:28:01;33.23;;;16.30;;
3293;SDS011;1659;51.470;6.770;2023-02-18T14:30:30;35.63;;;18.73;;
3293;SDS011;1659;51.470;6.770;2023-02-18T14:33:03;45.90;;;21.27;;
3293;SDS011;1659;51.470;6.770;2023-02-18T14:35:32;82.27;;;33.20;;
3293;SDS011;1659;51.470;6.770;2023-02-18T14:38:07;66.90;;;31.20;;
3293;SDS011;1659;51.470;6.770;2023-02-18T14:40:57;40.73;;;19.93;;
3293;SDS011;1659;51.470;6.770;2023-02-18T14:46:32;43.90;;;20.17;;
3293;SDS011;1659;51.470;6.770;2023-02-18T14:49:13;41.07;;;19.30;;
3293;SDS011;1659;51.470;6.770;2023-02-18T14:51:50;33.83;;;17.33;;
3293;SDS011;1659;51.470;6.770;2023-02-18T14:54:18;36.97;;;17.20;;
3293;SDS011;1659;51.470;6.770;2023-02-18T14:56:51;30.90;;;15.80;;
3293;SDS011;1659;51.470;6.770;2023-02-18T14:59:21;35.80;;;16.23;;
3293;SDS011;1659;51.470;6.770;2023-02-18T15:01:53;27.10;;;14.57;;
3293;SDS011;1659;51.470;6.770;2023-02-18T15:04:21;38.53;;;15.50;;
3293;SDS011;1659;51.470;6.770;2023-02-18T15:06:58;42.67;;;19.27;;
3293;SDS011;1659;51.470;6.770;2023-02-18T15:09:26;40.67;;;18.47;;
3293;SDS011;1659;51.470;6.770;2023-02-18T15:11:54;31.60;;;16.10;;
3293;SDS011;1659;51.470;6.770;2023-02-18T15:14:25;32.57;;;18.20;;
3293;SDS011;1659;51.470;6.770;2023-02-18T15:16:55;44.13;;;20.07;;
3293;SDS011;1659;51.470;6.770;2023-02-18T15:19:23;39.80;;;19.57;;
3293;SDS011;1659;51.470;6.770;2023-02-18T15:21:53;41.57;;;16.87;;
3293;SDS011;1659;51.470;6.770;2023-02-18T15:24:26;40.10;;;18.33;;
3293;SDS011;1659;51.470;6.770;2023-02-18T15:26:57;53.10;;;21.97;;
3293;SDS011;1659;51.470;6.770;2023-02-18T15:29:26;42.57;;;18.77;;
3293;SDS011;1659;51.470;6.770;2023-02-18T15:31:55;42.00;;;19.67;;
3293;SDS011;1659;51.470;6.770;2023-02-18T15:34:30;36.13;;;19.40;;
3293;SDS011;1659;51.470;6.770;2023-02-18T15:37:01;63.20;;;28.47;;
3293;SDS011;1659;51.470;6.770;2023-02-18T15:39:29;52.77;;;25.60;;
3293;SDS011;1659;51.470;6.770;2023-02-18T15:41:57;55.13;;;24.50;;
3293;SDS011;1659;51.470;6.770;2023-02-18T15:44:28;61.27;;;24.70;;
3293;SDS011;1659;51.470;6.770;2023-02-18T15:46:58;35.60;;;20.50;;
3293;SDS011;1659;51.470;6.770;2023-02-18T15:49:25;39.30;;;18.47;;
3293;SDS011;1659;51.470;6.770;2023-02-18T15:51:53;31.70;;;17.80;;